sensor_id;sensor_type;location;lat;lon;timestamp;temperature;humidity
17891;DHT22;9071;48.220;14.480;2024-03-08T00:03:58;4.00;99.90
17891;DHT22;9071;48.220;14.480;2024-03-08T00:09:00;4.00;99.90
17891;DHT22;9071;48.220;14.480;2024-03-08T00:14:04;3.90;99.90
17891;DHT22;9071;48.220;14.480;2024-03-08T00:19:07;3.90;99.90
17891;DHT22;9071;48.220;14.480;2024-03-08T00:24:10;3.90;99.90
17891;DHT22;9071;48.220;14.480;2024-03-08T00:29:14;3.80;99.90
17891;DHT22;9071;48.220;14.480;2024-03-08T00:34:16;3.80;99.90
17891;DHT22;9071;48.220;14.480;2024-03-08T00:39:18;3.70;99.90
17891;DHT22;9071;48.220;14.480;2024-03-08T00:44:22;3.50;99.90
17891;DHT22;9071;48.220;14.480;2024-03-08T00:49:24;3.30;99.90
17891;DHT22;9071;48.220;14.480;2024-03-08T00:54:26;3.20;99.90
17891;DHT22;9071;48.220;14.480;2024-03-08T00:59:29;3.10;99.90
17891;DHT22;9071;48.220;14.480;2024-03-08T01:04:33;3.00;99.90
17891;DHT22;9071;48.220;14.480;2024-03-08T01:09:35;3.00;99.90
17891;DHT22;9071;48.220;14.480;2024-03-08T01:14:39;3.00;99.90
17891;DHT22;9071;48.220;14.480;2024-03-08T01:19:41;2.80;99.90
17891;DHT22;9071;48.220;14.480;2024-03-08T01:24:45;2.70;99.90
17891;DHT22;9071;48.220;14.480;2024-03-08T01:29:49;2.60;99.90
17891;DHT22;9071;48.220;14.480;2024-03-08T01:34:51;2.60;99.90
17891;DHT22;9071;48.220;14.480;2024-03-08T01:39:53;2.60;99.90
17891;DHT22;9071;48.220;14.480;2024-03-08T01:44:56;2.50;99.90
17891;DHT22;9071;48.220;14.480;2024-03-08T01:49:59;2.50;99.90
17891;DHT22;9071;48.220;14.480;2024-03-08T01:55:03;2.40;99.90
17891;DHT22;9071;48.220;14.480;2024-03-08T02:00:11;2.40;99.90
17891;DHT22;9071;48.220;14.480;2024-03-08T02:05:14;2.30;99.90
17891;DHT22;9071;48.220;14.480;2024-03-08T02:10:16;2.20;99.90
17891;DHT22;9071;48.220;14.480;2024-03-08T02:15:20;2.20;99.90
17891;DHT22;9071;48.220;14.480;2024-03-08T02:20:22;2.10;99.90
17891;DHT22;9071;48.220;14.480;2024-03-08T02:25:26;2.10;99.90
17891;DHT22;9071;48.220;14.480;2024-03-08T02:30:28;2.10;99.90
17891;DHT22;9071;48.220;14.480;2024-03-08T02:35:30;2.00;99.90
17891;DHT22;9071;48.220;14.480;2024-03-08T02:40:33;2.00;99.90
17891;DHT22;9071;48.220;14.480;2024-03-08T02:45:35;2.00;99.90
17891;DHT22;9071;48.220;14.480;2024-03-08T02:50:38;1.80;99.90
17891;DHT22;9071;48.220;14.480;2024-03-08T02:55:42;1.90;99.90
17891;DHT22;9071;48.220;14.480;2024-03-08T03:00:44;1.80;99.90
17891;DHT22;9071;48.220;14.480;2024-03-08T03:05:47;1.70;99.90
17891;DHT22;9071;48.220;14.480;2024-03-08T03:10:51;1.60;99.90
17891;DHT22;9071;48.220;14.480;2024-03-08T03:15:55;1.60;99.90
17891;DHT22;9071;48.220;14.480;2024-03-08T03:20:58;1.70;99.90
17891;DHT22;9071;48.220;14.480;2024-03-08T03:26:02;1.70;99.90
17891;DHT22;9071;48.220;14.480;2024-03-08T03:31:04;1.70;99.90
17891;DHT22;9071;48.220;14.480;2024-03-08T03:36:07;1.70;99.90
17891;DHT22;9071;48.220;14.480;2024-03-08T03:41:11;1.70;99.90
17891;DHT22;9071;48.220;14.480;2024-03-08T03:46:15;1.60;99.90
17891;DHT22;9071;48.220;14.480;2024-03-08T03:51:17;1.50;99.90
17891;DHT22;9071;48.220;14.480;2024-03-08T03:56:25;1.60;99.90
17891;DHT22;9071;48.220;14.480;2024-03-08T04:01:27;1.70;99.90
17891;DHT22;9071;48.220;14.480;2024-03-08T04:06:30;1.80;99.90
17891;DHT22;9071;48.220;14.480;2024-03-08T04:11:33;1.90;99.90
17891;DHT22;9071;48.220;14.480;2024-03-08T04:16:35;2.10;99.90
17891;DHT22;9071;48.220;14.480;2024-03-08T04:21:37;2.30;99.90
17891;DHT22;9071;48.220;14.480;2024-03-08T04:26:41;2.40;99.90
17891;DHT22;9071;48.220;14.480;2024-03-08T04:31:43;2.40;99.90
17891;DHT22;9071;48.220;14.480;2024-03-08T04:36:45;2.50;99.90
17891;DHT22;9071;48.220;14.480;2024-03-08T04:41:49;2.50;99.90
17891;DHT22;9071;48.220;14.480;2024-03-08T04:46:52;2.50;99.90
17891;DHT22;9071;48.220;14.480;2024-03-08T04:51:54;2.40;99.90
17891;DHT22;9071;48.220;14.480;2024-03-08T04:56:57;2.20;99.90
17891;DHT22;9071;48.220;14.480;2024-03-08T05:02:00;2.10;99.90
17891;DHT22;9071;48.220;14.480;2024-03-08T05:07:02;2.10;99.90
17891;DHT22;9071;48.220;14.480;2024-03-08T05:12:06;2.00;99.90
17891;DHT22;9071;48.220;14.480;2024-03-08T05:17:08;1.90;99.90
17891;DHT22;9071;48.220;14.480;2024-03-08T05:22:11;1.80;99.90
17891;DHT22;9071;48.220;14.480;2024-03-08T05:27:14;1.80;99.90
17891;DHT22;9071;48.220;14.480;2024-03-08T05:32:16;1.70;99.90
17891;DHT22;9071;48.220;14.480;2024-03-08T05:37:18;1.70;99.90
17891;DHT22;9071;48.220;14.480;2024-03-08T05:42:22;2.00;99.90
17891;DHT22;9071;48.220;14.480;2024-03-08T05:47:24;2.00;99.90
17891;DHT22;9071;48.220;14.480;2024-03-08T05:52:27;1.90;99.90
17891;DHT22;9071;48.220;14.480;2024-03-08T05:57:30;1.90;99.90
17891;DHT22;9071;48.220;14.480;2024-03-08T06:02:32;1.90;99.90
17891;DHT22;9071;48.220;14.480;2024-03-08T06:07:34;1.90;99.90
17891;DHT22;9071;48.220;14.480;2024-03-08T06:12:38;2.00;99.90
17891;DHT22;9071;48.220;14.480;2024-03-08T06:17:41;2.00;99.90
17891;DHT22;9071;48.220;14.480;2024-03-08T06:22:44;2.30;99.90
17891;DHT22;9071;48.220;14.480;2024-03-08T06:27:47;3.70;99.90
17891;DHT22;9071;48.220;14.480;2024-03-08T06:32:49;4.90;99.90
17891;DHT22;9071;48.220;14.480;2024-03-08T06:37:52;5.70;99.90
17891;DHT22;9071;48.220;14.480;2024-03-08T06:42:55;6.10;99.90
17891;DHT22;9071;48.220;14.480;2024-03-08T06:47:57;6.80;99.90
17891;DHT22;9071;48.220;14.480;2024-03-08T06:52:59;7.20;99.90
17891;DHT22;9071;48.220;14.480;2024-03-08T06:58:03;7.60;99.90
17891;DHT22;9071;48.220;14.480;2024-03-08T07:03:07;7.50;99.90
17891;DHT22;9071;48.220;14.480;2024-03-08T07:08:12;8.10;99.90
17891;DHT22;9071;48.220;14.480;2024-03-08T07:13:17;8.40;99.90
17891;DHT22;9071;48.220;14.480;2024-03-08T07:18:19;8.70;99.90
17891;DHT22;9071;48.220;14.480;2024-03-08T07:23:22;9.10;99.90
17891;DHT22;9071;48.220;14.480;2024-03-08T07:28:43;9.20;99.90
17891;DHT22;9071;48.220;14.480;2024-03-08T07:33:45;10.20;99.90
17891;DHT22;9071;48.220;14.480;2024-03-08T07:38:48;9.80;99.90
17891;DHT22;9071;48.220;14.480;2024-03-08T07:43:51;9.60;99.90
17891;DHT22;9071;48.220;14.480;2024-03-08T07:48:54;10.30;99.90
17891;DHT22;9071;48.220;14.480;2024-03-08T07:53:56;10.30;99.90
17891;DHT22;9071;48.220;14.480;2024-03-08T07:58:59;10.30;99.90
17891;DHT22;9071;48.220;14.480;2024-03-08T08:04:01;10.50;99.90
17891;DHT22;9071;48.220;14.480;2024-03-08T08:09:03;10.90;99.90
17891;DHT22;9071;48.220;14.480;2024-03-08T08:14:07;10.30;99.90
17891;DHT22;9071;48.220;14.480;2024-03-08T08:19:10;10.40;99.90
17891;DHT22;9071;48.220;14.480;2024-03-08T08:24:13;11.20;99.90
17891;DHT22;9071;48.220;14.480;2024-03-08T08:29:16;11.00;99.90
17891;DHT22;9071;48.220;14.480;2024-03-08T08:34:18;11.00;99.90
17891;DHT22;9071;48.220;14.480;2024-03-08T08:39:22;11.50;99.90
17891;DHT22;9071;48.220;14.480;2024-03-08T08:44:27;11.50;99.90
17891;DHT22;9071;48.220;14.480;2024-03-08T08:49:29;11.00;99.90
17891;DHT22;9071;48.220;14.480;2024-03-08T08:54:32;11.00;99.90
17891;DHT22;9071;48.220;14.480;2024-03-08T08:59:35;10.20;99.90
17891;DHT22;9071;48.220;14.480;2024-03-08T09:04:40;9.40;99.90
17891;DHT22;9071;48.220;14.480;2024-03-08T09:09:43;8.60;99.90
17891;DHT22;9071;48.220;14.480;2024-03-08T09:14:47;8.30;99.90
17891;DHT22;9071;48.220;14.480;2024-03-08T09:19:49;7.90;99.90
17891;DHT22;9071;48.220;14.480;2024-03-08T09:24:51;7.90;99.90
17891;DHT22;9071;48.220;14.480;2024-03-08T09:29:55;7.90;99.90
17891;DHT22;9071;48.220;14.480;2024-03-08T09:34:57;8.10;99.90
17891;DHT22;9071;48.220;14.480;2024-03-08T09:39:59;8.00;99.90
17891;DHT22;9071;48.220;14.480;2024-03-08T09:45:09;7.90;99.90
17891;DHT22;9071;48.220;14.480;2024-03-08T09:50:12;7.60;99.90
17891;DHT22;9071;48.220;14.480;2024-03-08T09:55:16;7.50;99.90
17891;DHT22;9071;48.220;14.480;2024-03-08T10:00:24;7.50;99.90
17891;DHT22;9071;48.220;14.480;2024-03-08T10:05:26;7.60;99.90
17891;DHT22;9071;48.220;14.480;2024-03-08T10:10:28;7.80;99.90
17891;DHT22;9071;48.220;14.480;2024-03-08T10:15:32;8.00;99.90
17891;DHT22;9071;48.220;14.480;2024-03-08T10:20:34;8.00;99.90
17891;DHT22;9071;48.220;14.480;2024-03-08T10:25:36;7.90;99.90
17891;DHT22;9071;48.220;14.480;2024-03-08T10:30:47;8.20;99.90
17891;DHT22;9071;48.220;14.480;2024-03-08T10:35:50;8.40;99.90
17891;DHT22;9071;48.220;14.480;2024-03-08T10:40:52;8.30;99.90
17891;DHT22;9071;48.220;14.480;2024-03-08T10:46:08;8.40;99.90
17891;DHT22;9071;48.220;14.480;2024-03-08T10:51:14;8.40;99.90
17891;DHT22;9071;48.220;14.480;2024-03-08T10:56:17;8.60;99.90
17891;DHT22;9071;48.220;14.480;2024-03-08T11:01:20;8.70;99.90
17891;DHT22;9071;48.220;14.480;2024-03-08T11:06:29;8.90;99.90
17891;DHT22;9071;48.220;14.480;2024-03-08T11:11:33;8.80;99.90
17891;DHT22;9071;48.220;14.480;2024-03-08T11:16:43;9.00;99.90
17891;DHT22;9071;48.220;14.480;2024-03-08T11:21:45;9.30;99.90
17891;DHT22;9071;48.220;14.480;2024-03-08T11:26:48;9.40;99.90
17891;DHT22;9071;48.220;14.480;2024-03-08T11:31:51;9.30;99.90
17891;DHT22;9071;48.220;14.480;2024-03-08T11:36:54;9.10;99.90
17891;DHT22;9071;48.220;14.480;2024-03-08T11:41:57;8.90;99.90
17891;DHT22;9071;48.220;14.480;2024-03-08T11:47:01;9.20;99.90
17891;DHT22;9071;48.220;14.480;2024-03-08T11:52:04;9.40;99.90
17891;DHT22;9071;48.220;14.480;2024-03-08T11:57:07;9.50;99.90
17891;DHT22;9071;48.220;14.480;2024-03-08T12:02:12;9.50;99.90
17891;DHT22;9071;48.220;14.480;2024-03-08T12:07:14;9.60;99.90
17891;DHT22;9071;48.220;14.480;2024-03-08T12:12:19;9.80;99.90
17891;DHT22;9071;48.220;14.480;2024-03-08T12:17:23;9.60;99.90
17891;DHT22;9071;48.220;14.480;2024-03-08T12:22:26;9.70;99.90
17891;DHT22;9071;48.220;14.480;2024-03-08T12:27:28;9.60;99.90
17891;DHT22;9071;48.220;14.480;2024-03-08T12:32:31;9.80;99.90
17891;DHT22;9071;48.220;14.480;2024-03-08T12:37:33;9.90;99.90
17891;DHT22;9071;48.220;14.480;2024-03-08T12:42:36;10.10;99.90
17891;DHT22;9071;48.220;14.480;2024-03-08T12:47:41;10.10;99.90
17891;DHT22;9071;48.220;14.480;2024-03-08T12:52:43;9.90;99.90
17891;DHT22;9071;48.220;14.480;2024-03-08T12:57:45;10.20;99.90
17891;DHT22;9071;48.220;14.480;2024-03-08T13:02:51;10.10;99.90
17891;DHT22;9071;48.220;14.480;2024-03-08T13:07:53;10.30;99.90
17891;DHT22;9071;48.220;14.480;2024-03-08T13:12:55;10.40;99.90
17891;DHT22;9071;48.220;14.480;2024-03-08T13:17:58;10.30;99.90
17891;DHT22;9071;48.220;14.480;2024-03-08T13:23:00;10.40;99.90
17891;DHT22;9071;48.220;14.480;2024-03-08T13:28:03;10.60;99.90
17891;DHT22;9071;48.220;14.480;2024-03-08T13:33:08;10.70;99.90
17891;DHT22;9071;48.220;14.480;2024-03-08T13:38:10;10.60;99.90
17891;DHT22;9071;48.220;14.480;2024-03-08T13:43:13;10.60;99.90
17891;DHT22;9071;48.220;14.480;2024-03-08T13:48:17;10.60;99.90
17891;DHT22;9071;48.220;14.480;2024-03-08T13:53:19;10.60;99.90
17891;DHT22;9071;48.220;14.480;2024-03-08T13:58:21;10.60;99.90
17891;DHT22;9071;48.220;14.480;2024-03-08T14:03:24;10.60;99.90
17891;DHT22;9071;48.220;14.480;2024-03-08T14:08:27;10.70;99.90
17891;DHT22;9071;48.220;14.480;2024-03-08T14:13:29;10.70;99.90
17891;DHT22;9071;48.220;14.480;2024-03-08T14:18:32;10.60;99.90
17891;DHT22;9071;48.220;14.480;2024-03-08T14:23:35;10.50;99.90
17891;DHT22;9071;48.220;14.480;2024-03-08T14:28:37;10.50;99.90
17891;DHT22;9071;48.220;14.480;2024-03-08T14:33:40;10.50;99.90
17891;DHT22;9071;48.220;14.480;2024-03-08T14:38:43;10.40;99.90
17891;DHT22;9071;48.220;14.480;2024-03-08T14:43:48;10.50;99.90
17891;DHT22;9071;48.220;14.480;2024-03-08T14:48:51;10.50;99.90
17891;DHT22;9071;48.220;14.480;2024-03-08T14:53:53;10.40;99.90
17891;DHT22;9071;48.220;14.480;2024-03-08T14:58:56;10.40;99.90
17891;DHT22;9071;48.220;14.480;2024-03-08T15:04:01;10.20;99.90
17891;DHT22;9071;48.220;14.480;2024-03-08T15:09:09;10.10;99.90
17891;DHT22;9071;48.220;14.480;2024-03-08T15:14:17;10.10;99.90
17891;DHT22;9071;48.220;14.480;2024-03-08T15:19:21;10.10;99.90
17891;DHT22;9071;48.220;14.480;2024-03-08T15:24:23;10.00;99.90
17891;DHT22;9071;48.220;14.480;2024-03-08T15:29:25;10.00;99.90
17891;DHT22;9071;48.220;14.480;2024-03-08T15:34:29;9.70;99.90
17891;DHT22;9071;48.220;14.480;2024-03-08T15:39:32;9.70;99.90
17891;DHT22;9071;48.220;14.480;2024-03-08T15:44:35;9.60;99.90
17891;DHT22;9071;48.220;14.480;2024-03-08T15:49:39;9.40;99.90
17891;DHT22;9071;48.220;14.480;2024-03-08T15:54:41;9.40;99.90
17891;DHT22;9071;48.220;14.480;2024-03-08T15:59:44;9.30;99.90
17891;DHT22;9071;48.220;14.480;2024-03-08T16:04:48;9.20;99.90
17891;DHT22;9071;48.220;14.480;2024-03-08T16:09:51;9.10;99.90
17891;DHT22;9071;48.220;14.480;2024-03-08T16:14:53;9.10;99.90
17891;DHT22;9071;48.220;14.480;2024-03-08T16:19:56;9.00;99.90
17891;DHT22;9071;48.220;14.480;2024-03-08T16:24:58;8.80;99.90
17891;DHT22;9071;48.220;14.480;2024-03-08T16:30:00;8.70;99.90
17891;DHT22;9071;48.220;14.480;2024-03-08T16:35:05;8.60;99.90
17891;DHT22;9071;48.220;14.480;2024-03-08T16:40:11;8.50;99.90
17891;DHT22;9071;48.220;14.480;2024-03-08T16:45:16;8.40;99.90
17891;DHT22;9071;48.220;14.480;2024-03-08T16:50:20;8.30;99.90
17891;DHT22;9071;48.220;14.480;2024-03-08T16:55:24;8.10;99.90
17891;DHT22;9071;48.220;14.480;2024-03-08T17:00:26;8.00;99.90
17891;DHT22;9071;48.220;14.480;2024-03-08T17:05:30;7.90;99.90
17891;DHT22;9071;48.220;14.480;2024-03-08T17:10:34;7.80;99.90
17891;DHT22;9071;48.220;14.480;2024-03-08T17:15:37;7.70;99.90
17891;DHT22;9071;48.220;14.480;2024-03-08T17:20:41;7.60;99.90
17891;DHT22;9071;48.220;14.480;2024-03-08T17:25:44;7.40;99.90
17891;DHT22;9071;48.220;14.480;2024-03-08T17:30:47;7.40;99.90
17891;DHT22;9071;48.220;14.480;2024-03-08T17:35:50;7.30;99.90
17891;DHT22;9071;48.220;14.480;2024-03-08T17:40:53;7.30;99.90
17891;DHT22;9071;48.220;14.480;2024-03-08T17:45:55;7.20;99.90
17891;DHT22;9071;48.220;14.480;2024-03-08T17:50:59;7.10;99.90
17891;DHT22;9071;48.220;14.480;2024-03-08T17:56:02;7.00;99.90
17891;DHT22;9071;48.220;14.480;2024-03-08T18:01:06;6.90;99.90
17891;DHT22;9071;48.220;14.480;2024-03-08T18:06:13;6.80;99.90
17891;DHT22;9071;48.220;14.480;2024-03-08T18:11:16;6.70;99.90
17891;DHT22;9071;48.220;14.480;2024-03-08T18:16:18;6.60;99.90
17891;DHT22;9071;48.220;14.480;2024-03-08T18:21:22;6.50;99.90
17891;DHT22;9071;48.220;14.480;2024-03-08T18:26:24;6.50;99.90
17891;DHT22;9071;48.220;14.480;2024-03-08T18:31:26;6.40;99.90
17891;DHT22;9071;48.220;14.480;2024-03-08T18:36:30;6.20;99.90
17891;DHT22;9071;48.220;14.480;2024-03-08T18:41:34;6.20;99.90
17891;DHT22;9071;48.220;14.480;2024-03-08T18:46:36;6.10;99.90
17891;DHT22;9071;48.220;14.480;2024-03-08T18:51:40;6.00;99.90
17891;DHT22;9071;48.220;14.480;2024-03-08T18:56:43;6.00;99.90
17891;DHT22;9071;48.220;14.480;2024-03-08T19:01:47;5.90;99.90
17891;DHT22;9071;48.220;14.480;2024-03-08T19:06:52;5.90;99.90
17891;DHT22;9071;48.220;14.480;2024-03-08T19:11:54;5.80;99.90
17891;DHT22;9071;48.220;14.480;2024-03-08T19:16:57;5.70;99.90
17891;DHT22;9071;48.220;14.480;2024-03-08T19:22:00;5.70;99.90
17891;DHT22;9071;48.220;14.480;2024-03-08T19:27:03;5.80;99.90
17891;DHT22;9071;48.220;14.480;2024-03-08T19:32:07;5.60;99.90
17891;DHT22;9071;48.220;14.480;2024-03-08T19:37:13;5.60;99.90
17891;DHT22;9071;48.220;14.480;2024-03-08T19:42:15;5.50;99.90
17891;DHT22;9071;48.220;14.480;2024-03-08T19:47:17;5.50;99.90
17891;DHT22;9071;48.220;14.480;2024-03-08T19:52:20;5.40;99.90
17891;DHT22;9071;48.220;14.480;2024-03-08T19:57:22;5.30;99.90
17891;DHT22;9071;48.220;14.480;2024-03-08T20:02:24;5.30;99.90
17891;DHT22;9071;48.220;14.480;2024-03-08T20:07:28;5.20;99.90
17891;DHT22;9071;48.220;14.480;2024-03-08T20:12:30;5.20;99.90
17891;DHT22;9071;48.220;14.480;2024-03-08T20:17:33;5.20;99.90
17891;DHT22;9071;48.220;14.480;2024-03-08T20:22:37;5.30;99.90
17891;DHT22;9071;48.220;14.480;2024-03-08T20:27:40;5.30;99.90
17891;DHT22;9071;48.220;14.480;2024-03-08T20:32:45;5.20;99.90
17891;DHT22;9071;48.220;14.480;2024-03-08T20:37:48;5.10;99.90
17891;DHT22;9071;48.220;14.480;2024-03-08T20:42:51;5.10;99.90
17891;DHT22;9071;48.220;14.480;2024-03-08T20:47:53;5.00;99.90
17891;DHT22;9071;48.220;14.480;2024-03-08T20:52:56;5.00;99.90
17891;DHT22;9071;48.220;14.480;2024-03-08T20:57:58;4.90;99.90
17891;DHT22;9071;48.220;14.480;2024-03-08T21:03:01;4.80;99.90
17891;DHT22;9071;48.220;14.480;2024-03-08T21:08:07;4.80;99.90
17891;DHT22;9071;48.220;14.480;2024-03-08T21:13:12;4.90;99.90
17891;DHT22;9071;48.220;14.480;2024-03-08T21:18:14;4.80;99.90
17891;DHT22;9071;48.220;14.480;2024-03-08T21:23:18;4.80;99.90
17891;DHT22;9071;48.220;14.480;2024-03-08T21:28:20;4.80;99.90
17891;DHT22;9071;48.220;14.480;2024-03-08T21:33:29;4.70;99.90
17891;DHT22;9071;48.220;14.480;2024-03-08T21:38:32;4.70;99.90
17891;DHT22;9071;48.220;14.480;2024-03-08T21:43:34;4.70;99.90
17891;DHT22;9071;48.220;14.480;2024-03-08T21:48:36;4.70;99.90
17891;DHT22;9071;48.220;14.480;2024-03-08T21:53:40;4.60;99.90
17891;DHT22;9071;48.220;14.480;2024-03-08T21:58:43;4.60;99.90
17891;DHT22;9071;48.220;14.480;2024-03-08T22:03:46;4.70;99.90
17891;DHT22;9071;48.220;14.480;2024-03-08T22:08:49;4.70;99.90
17891;DHT22;9071;48.220;14.480;2024-03-08T22:13:51;4.60;99.90
17891;DHT22;9071;48.220;14.480;2024-03-08T22:18:53;4.60;99.90
17891;DHT22;9071;48.220;14.480;2024-03-08T22:23:57;4.60;99.90
17891;DHT22;9071;48.220;14.480;2024-03-08T22:28:59;4.50;99.90
17891;DHT22;9071;48.220;14.480;2024-03-08T22:34:01;4.40;99.90
17891;DHT22;9071;48.220;14.480;2024-03-08T22:39:05;4.40;99.90
17891;DHT22;9071;48.220;14.480;2024-03-08T22:44:10;4.50;99.90
17891;DHT22;9071;48.220;14.480;2024-03-08T22:49:12;4.40;99.90
17891;DHT22;9071;48.220;14.480;2024-03-08T22:54:16;4.40;99.90
17891;DHT22;9071;48.220;14.480;2024-03-08T22:59:23;4.40;99.90
17891;DHT22;9071;48.220;14.480;2024-03-08T23:04:25;4.30;99.90
17891;DHT22;9071;48.220;14.480;2024-03-08T23:09:29;4.40;99.90
17891;DHT22;9071;48.220;14.480;2024-03-08T23:14:32;4.30;99.90
17891;DHT22;9071;48.220;14.480;2024-03-08T23:19:34;4.30;99.90
17891;DHT22;9071;48.220;14.480;2024-03-08T23:24:39;4.30;99.90
17891;DHT22;9071;48.220;14.480;2024-03-08T23:29:41;4.30;99.90
17891;DHT22;9071;48.220;14.480;2024-03-08T23:34:44;4.40;99.90
17891;DHT22;9071;48.220;14.480;2024-03-08T23:39:48;4.40;99.90
17891;DHT22;9071;48.220;14.480;2024-03-08T23:44:50;4.40;99.90
17891;DHT22;9071;48.220;14.480;2024-03-08T23:49:52;4.40;99.90
17891;DHT22;9071;48.220;14.480;2024-03-08T23:54:56;4.30;99.90
17891;DHT22;9071;48.220;14.480;2024-03-08T23:59:58;4.30;99.90
